Time;durP1;ratioP1;P1;durP2;ratioP2;P2;SDS_P1;SDS_P2;PMS_P1;PMS_P2;Temp;Humidity;BMP_temperature;BMP_pressure;BME280_temperature;BME280_humidity;BME280_pressure;Samples;Min_cycle;Max_cycle;Signal;HPM_P1;HPM_P2
2022/09/10 00:01:32;;;;;;;1.38;0.77;;;;;;;12.94;100.00;98588.66;5045496;28;20020;-69
2022/09/10 00:04:00;;;;;;;3.67;1.00;;;;;;;13.06;100.00;98582.47;5043823;28;20033;-67
2022/09/10 00:06:26;;;;;;;4.18;1.00;;;;;;;13.01;100.00;98580.41;5040836;28;20138;-67
2022/09/10 00:08:55;;;;;;;3.60;0.93;;;;;;;13.04;100.00;98571.00;5043608;28;20029;-67
2022/09/10 00:11:20;;;;;;;2.33;0.70;;;;;;;13.02;100.00;98559.50;5041951;28;20021;-67
2022/09/10 00:13:48;;;;;;;2.15;0.90;;;;;;;13.09;100.00;98565.72;5042163;28;20021;-67
2022/09/10 00:16:14;;;;;;;4.55;0.60;;;;;;;13.07;100.00;98563.25;5041638;28;21020;-68
2022/09/10 00:18:40;;;;;;;2.28;0.65;;;;;;;13.11;100.00;98550.84;5046803;28;20032;-67
2022/09/10 00:21:12;;;;;;;5.15;0.80;;;;;;;13.13;100.00;98542.50;5041243;28;20076;-67
2022/09/10 00:23:38;;;;;;;2.00;0.60;;;;;;;13.03;100.00;98526.72;5044570;28;20026;-68
2022/09/10 00:26:16;;;;;;;2.97;0.60;;;;;;;13.07;100.00;98532.50;5034209;28;20025;-67
2022/09/10 00:28:42;;;;;;;4.37;0.60;;;;;;;13.11;100.00;98541.88;5045576;28;20032;-68
2022/09/10 00:31:08;;;;;;;5.03;0.82;;;;;;;13.12;100.00;98543.53;5040235;28;20037;-68
2022/09/10 00:33:33;;;;;;;1.52;0.70;;;;;;;13.10;100.00;98548.38;5045810;28;20082;-68
2022/09/10 00:35:58;;;;;;;2.05;0.70;;;;;;;12.93;100.00;98527.22;5046645;28;20036;-68
2022/09/10 00:38:24;;;;;;;2.60;0.73;;;;;;;13.04;100.00;98557.41;5037505;28;20021;-68
2022/09/10 00:40:50;;;;;;;1.73;0.73;;;;;;;13.11;100.00;98553.56;5049157;28;20398;-68
2022/09/10 00:43:19;;;;;;;2.35;0.40;;;;;;;13.09;100.00;98549.41;5043657;28;20059;-68
2022/09/10 00:45:49;;;;;;;2.83;0.65;;;;;;;13.12;100.00;98544.34;5050440;28;20783;-68
2022/09/10 00:48:26;;;;;;;1.13;0.38;;;;;;;13.04;100.00;98530.25;5048063;28;20037;-68
2022/09/10 00:50:51;;;;;;;1.25;0.50;;;;;;;13.20;100.00;98554.09;5045561;28;20033;-68
2022/09/10 00:53:22;;;;;;;0.63;0.47;;;;;;;13.19;100.00;98562.47;5047752;28;20036;-68
2022/09/10 00:55:52;;;;;;;0.98;0.50;;;;;;;13.25;100.00;98554.25;5050179;28;20090;-68
2022/09/10 00:58:19;;;;;;;0.80;0.50;;;;;;;13.21;100.00;98563.09;5044317;28;20028;-68
2022/09/10 01:00:44;;;;;;;3.55;0.60;;;;;;;13.19;100.00;98568.75;5045835;28;20028;-68
2022/09/10 01:03:12;;;;;;;1.80;0.52;;;;;;;13.19;100.00;98549.72;5046536;28;20027;-68
2022/09/10 01:05:41;;;;;;;2.63;0.80;;;;;;;13.15;100.00;98556.66;5045033;28;20087;-68
2022/09/10 01:08:11;;;;;;;2.72;0.60;;;;;;;13.20;100.00;98555.97;5047941;28;20025;-68
2022/09/10 01:11:02;;;;;;;4.88;0.80;;;;;;;13.16;100.00;98558.34;5048563;28;20041;-68
2022/09/10 01:13:53;;;;;;;3.35;0.60;;;;;;;13.16;100.00;98548.28;5027876;28;20104;-68
2022/09/10 01:16:18;;;;;;;1.92;0.65;;;;;;;13.20;100.00;98559.53;5049555;28;20029;-68
2022/09/10 01:18:54;;;;;;;1.60;0.60;;;;;;;13.24;100.00;98549.06;5035702;28;20445;-68
2022/09/10 01:21:19;;;;;;;1.63;0.77;;;;;;;13.24;100.00;98544.44;5039624;28;20112;-68
2022/09/10 01:24:11;;;;;;;3.08;0.60;;;;;;;13.21;100.00;98553.06;5047740;28;20025;-68
2022/09/10 01:27:14;;;;;;;2.70;0.73;;;;;;;13.25;100.00;98556.97;5046065;28;20029;-68
2022/09/10 01:29:46;;;;;;;2.35;0.80;;;;;;;13.29;100.00;98554.66;5043495;28;20400;-68
2022/09/10 01:32:14;;;;;;;2.72;0.63;;;;;;;13.31;100.00;98552.56;5050048;28;20071;-69
2022/09/10 01:34:46;;;;;;;3.15;0.82;;;;;;;13.24;100.00;98541.72;5046044;28;20056;-68
2022/09/10 01:37:23;;;;;;;1.58;0.65;;;;;;;13.35;100.00;98553.75;5045767;28;20037;-68
2022/09/10 01:39:51;;;;;;;2.17;0.75;;;;;;;13.38;100.00;98554.13;5034091;28;20035;-69
2022/09/10 01:42:17;;;;;;;4.82;0.90;;;;;;;13.24;100.00;98535.47;5048232;28;20031;-69
2022/09/10 01:44:48;;;;;;;3.60;1.00;;;;;;;13.38;100.00;98564.16;5048986;28;20091;-68
2022/09/10 01:47:39;;;;;;;3.30;0.95;;;;;;;13.30;100.00;98568.00;5049154;28;20028;-68
2022/09/10 01:50:23;;;;;;;2.05;0.80;;;;;;;13.27;100.00;98554.88;5040358;28;20037;-68
2022/09/10 01:53:05;;;;;;;3.22;1.00;;;;;;;13.27;100.00;98568.47;5047098;28;20043;-68
2022/09/10 01:55:42;;;;;;;4.30;0.88;;;;;;;13.19;100.00;98560.59;5034794;28;20039;-67
2022/09/10 01:58:33;;;;;;;1.63;0.90;;;;;;;13.25;100.00;98564.28;5035031;28;20071;-67
2022/09/10 02:01:19;;;;;;;2.75;0.80;;;;;;;13.22;100.00;98562.84;5045589;28;20032;-67
2022/09/10 02:03:49;;;;;;;6.47;0.90;;;;;;;13.23;100.00;98556.38;5046544;28;20021;-68
2022/09/10 02:06:19;;;;;;;4.88;1.23;;;;;;;13.21;100.00;98555.78;5043992;28;20032;-68
2022/09/10 02:08:48;;;;;;;4.38;0.90;;;;;;;13.17;100.00;98554.56;5047054;28;20032;-68
2022/09/10 02:11:13;;;;;;;3.03;1.10;;;;;;;13.16;100.00;98567.31;5045684;28;20039;-67
2022/09/10 02:13:41;;;;;;;4.28;1.00;;;;;;;13.13;100.00;98566.94;5042314;28;20037;-68
2022/09/10 02:16:10;;;;;;;3.97;1.00;;;;;;;13.12;100.00;98555.22;5047418;28;20032;-68
2022/09/10 02:18:37;;;;;;;3.60;1.13;;;;;;;13.15;100.00;98559.38;5045681;28;20393;-68
2022/09/10 02:21:03;;;;;;;3.03;1.00;;;;;;;13.04;100.00;98557.41;5049186;28;20037;-68
2022/09/10 02:23:37;;;;;;;4.78;1.17;;;;;;;13.09;100.00;98563.00;5044642;28;20021;-68
2022/09/10 02:26:02;;;;;;;2.65;0.90;;;;;;;13.02;100.00;98559.50;5044245;28;20365;-68
2022/09/10 02:28:29;;;;;;;1.35;0.70;;;;;;;12.98;100.00;98559.16;5042804;28;20048;-68
2022/09/10 02:30:54;;;;;;;4.93;1.00;;;;;;;12.97;100.00;98568.38;5046170;28;20032;-68
2022/09/10 02:33:19;;;;;;;2.33;0.75;;;;;;;12.90;100.00;98560.25;5047486;28;20037;-68
2022/09/10 02:35:46;;;;;;;3.28;0.55;;;;;;;12.85;100.00;98554.69;5050283;28;20021;-68
2022/09/10 02:38:11;;;;;;;4.10;1.10;;;;;;;12.92;100.00;98566.31;5040997;28;20056;-69
2022/09/10 02:40:38;;;;;;;3.22;0.80;;;;;;;12.87;100.00;98552.56;5044087;28;20052;-68
2022/09/10 02:43:03;;;;;;;1.60;0.77;;;;;;;12.73;100.00;98540.16;5046088;28;20039;-68
2022/09/10 02:45:29;;;;;;;1.98;0.63;;;;;;;12.92;100.00;98563.59;5046467;28;20029;-68
2022/09/10 02:47:54;;;;;;;3.03;0.65;;;;;;;12.80;100.00;98543.66;5045552;28;20060;-69
2022/09/10 02:50:19;;;;;;;6.30;0.90;;;;;;;12.86;100.00;98552.78;5046863;28;20021;-68
2022/09/10 02:52:45;;;;;;;3.05;0.80;;;;;;;12.70;100.00;98540.63;5044508;28;20029;-68
2022/09/10 02:55:11;;;;;;;2.17;0.50;;;;;;;12.79;100.00;98555.59;5047448;28;20675;-68
2022/09/10 02:57:38;;;;;;;6.00;1.25;;;;;;;12.78;100.00;98553.91;5043177;28;20091;-69
2022/09/10 03:00:04;;;;;;;3.38;0.80;;;;;;;12.72;100.00;98549.38;5043874;28;20107;-68
2022/09/10 03:02:30;;;;;;;4.70;1.67;;;;;;;12.80;100.00;98554.53;5023679;28;20029;-68
2022/09/10 03:04:55;;;;;;;2.35;0.73;;;;;;;12.79;100.00;98552.88;5046736;28;20629;-68
2022/09/10 03:07:20;;;;;;;3.63;0.57;;;;;;;12.78;100.00;98553.09;5044904;28;20032;-68
2022/09/10 03:09:46;;;;;;;1.80;0.70;;;;;;;12.79;100.00;98550.16;5043677;28;20074;-68
2022/09/10 03:12:14;;;;;;;3.28;0.70;;;;;;;12.76;100.00;98547.91;5045874;28;20041;-68
2022/09/10 03:14:40;;;;;;;2.25;0.60;;;;;;;12.66;100.00;98531.28;5046642;28;20032;-68
2022/09/10 03:17:05;;;;;;;1.77;0.60;;;;;;;12.78;100.00;98547.66;5045574;28;20551;-68
2022/09/10 03:19:30;;;;;;;2.45;0.47;;;;;;;12.86;100.00;98544.66;5046374;28;20024;-68
2022/09/10 03:21:56;;;;;;;3.47;0.85;;;;;;;12.90;100.00;98546.69;5037528;28;20257;-68
2022/09/10 03:24:21;;;;;;;1.80;0.70;;;;;;;12.87;100.00;98554.47;5047530;28;20021;-68
2022/09/10 03:26:47;;;;;;;3.03;0.88;;;;;;;12.84;100.00;98550.31;5046892;28;20033;-69
2022/09/10 03:29:12;;;;;;;5.50;0.90;;;;;;;12.81;100.00;98545.34;5038616;28;22557;-68
2022/09/10 03:31:38;;;;;;;5.00;0.80;;;;;;;12.86;100.00;98550.94;5045032;28;20017;-68
2022/09/10 03:34:05;;;;;;;5.45;0.98;;;;;;;12.91;100.00;98548.34;5046587;28;20645;-68
2022/09/10 03:36:30;;;;;;;3.22;0.90;;;;;;;12.97;100.00;98532.19;5045420;28;20095;-69
2022/09/10 03:38:59;;;;;;;3.42;0.70;;;;;;;13.01;100.00;98536.13;5019113;28;20041;-69
2022/09/10 03:41:27;;;;;;;3.08;1.40;;;;;;;13.04;100.00;98543.84;5027053;28;20024;-68
2022/09/10 03:43:53;;;;;;;2.00;0.75;;;;;;;12.96;100.00;98520.53;5044322;28;20546;-68
2022/09/10 03:46:19;;;;;;;1.80;0.68;;;;;;;13.05;100.00;98549.06;5046474;28;20531;-68
2022/09/10 03:48:44;;;;;;;3.28;0.68;;;;;;;13.02;100.00;98548.66;5042913;28;20033;-68
2022/09/10 03:51:10;;;;;;;4.00;1.00;;;;;;;12.96;100.00;98525.13;5045255;28;20105;-69
2022/09/10 03:53:37;;;;;;;3.83;0.88;;;;;;;13.06;100.00;98534.41;5043010;28;20025;-69
2022/09/10 03:56:03;;;;;;;2.97;0.70;;;;;;;12.89;100.00;98503.47;5044656;28;20017;-69
2022/09/10 03:58:28;;;;;;;3.55;0.90;;;;;;;13.07;100.00;98546.94;5041699;28;20035;-68
2022/09/10 04:00:54;;;;;;;3.75;0.88;;;;;;;13.09;100.00;98541.28;5042748;28;20517;-68
2022/09/10 04:03:19;;;;;;;3.72;1.00;;;;;;;13.12;100.00;98544.34;5045609;28;20548;-69
2022/09/10 04:05:44;;;;;;;5.45;0.98;;;;;;;13.12;100.00;98543.53;5044917;28;20059;-68
2022/09/10 04:08:11;;;;;;;4.95;0.80;;;;;;;13.09;100.00;98541.28;5043937;28;20031;-68
2022/09/10 04:10:38;;;;;;;2.78;0.80;;;;;;;12.82;100.00;98481.00;5041459;28;20033;-68
2022/09/10 04:13:03;;;;;;;3.90;1.00;;;;;;;13.20;100.00;98543.22;5041915;28;20021;-69
2022/09/10 04:15:28;;;;;;;1.13;0.68;;;;;;;13.25;100.00;98542.56;5044584;28;20542;-68
2022/09/10 04:17:53;;;;;;;2.38;0.80;;;;;;;13.24;100.00;98547.16;5040651;28;20422;-68
2022/09/10 04:20:23;;;;;;;3.20;0.80;;;;;;;13.19;100.00;98538.84;5044149;28;20024;-68
2022/09/10 04:22:50;;;;;;;;;;;;;;;13.18;100.00;98545.38;5040559;28;20027;-69
2022/09/10 04:25:16;;;;;;;3.65;1.00;;;;;;;13.21;100.00;98542.19;5027516;28;20389;-68
2022/09/10 04:27:41;;;;;;;3.08;1.00;;;;;;;13.16;100.00;98545.56;5045063;28;20040;-69
2022/09/10 04:30:08;;;;;;;2.65;1.10;;;;;;;13.17;100.00;98543.69;5041935;28;20521;-68
2022/09/10 04:32:33;;;;;;;4.05;1.00;;;;;;;13.03;100.00;98524.00;5042129;28;20127;-73
2022/09/10 04:35:01;;;;;;;6.22;1.20;;;;;;;13.10;100.00;98535.63;5039095;28;20140;-71
2022/09/10 04:37:26;;;;;;;4.93;1.27;;;;;;;13.01;100.00;98523.38;5042132;28;20028;-71
2022/09/10 04:39:52;;;;;;;3.85;1.10;;;;;;;13.22;100.00;98546.56;5040293;28;20032;-71
2022/09/10 04:42:19;;;;;;;2.78;0.90;;;;;;;13.23;100.00;98548.22;5042688;28;20021;-71
2022/09/10 04:44:44;;;;;;;1.73;0.85;;;;;;;13.18;100.00;98541.78;5034560;28;20059;-70
2022/09/10 04:47:10;;;;;;;2.53;0.90;;;;;;;13.25;100.00;98548.81;5047013;28;20025;-69
2022/09/10 04:49:35;;;;;;;4.93;1.05;;;;;;;13.25;100.00;98550.69;5043659;28;20122;-71
2022/09/10 04:52:01;;;;;;;2.58;1.15;;;;;;;13.16;100.00;98540.16;5044294;28;20025;-71
2022/09/10 04:54:26;;;;;;;7.20;1.42;;;;;;;13.29;100.00;98550.06;5044563;28;20024;-71
2022/09/10 04:56:51;;;;;;;3.00;1.00;;;;;;;13.35;100.00;98559.19;5048941;28;20107;-71
2022/09/10 04:59:17;;;;;;;3.35;1.15;;;;;;;13.40;100.00;98561.22;5043856;28;20039;-71
2022/09/10 05:01:42;;;;;;;5.05;1.20;;;;;;;13.40;100.00;98566.66;5041278;28;20752;-71
2022/09/10 05:04:07;;;;;;;1.70;1.15;;;;;;;13.19;100.00;98541.56;5044287;28;20421;-71
2022/09/10 05:06:33;;;;;;;5.03;0.82;;;;;;;13.32;100.00;98556.94;5044051;28;20017;-71
2022/09/10 05:08:58;;;;;;;2.17;1.05;;;;;;;13.37;100.00;98568.78;5047663;28;20075;-71
2022/09/10 05:11:24;;;;;;;1.65;1.05;;;;;;;13.31;100.00;98558.81;5045231;28;20021;-72
2022/09/10 05:13:49;;;;;;;4.32;1.05;;;;;;;13.34;100.00;98561.06;5023046;28;20025;-70
2022/09/10 05:16:14;;;;;;;3.25;1.20;;;;;;;13.45;100.00;98574.97;5046096;28;20041;-70
2022/09/10 05:18:40;;;;;;;4.65;1.60;;;;;;;13.43;100.00;98575.19;5043951;28;20033;-69
2022/09/10 05:21:06;;;;;;;4.32;1.30;;;;;;;13.24;100.00;98544.44;5042928;28;20032;-69
2022/09/10 05:23:31;;;;;;;5.88;1.70;;;;;;;13.45;100.00;98575.78;5042692;28;20032;-69
2022/09/10 05:25:57;;;;;;;3.97;1.88;;;;;;;13.46;100.00;98576.63;5045423;28;20029;-69
2022/09/10 05:28:23;;;;;;;3.22;1.08;;;;;;;13.45;100.00;98574.97;5020489;28;20033;-69
2022/09/10 05:30:49;;;;;;;1.90;1.00;;;;;;;13.48;100.00;98575.31;5042478;28;20029;-69
2022/09/10 05:33:14;;;;;;;5.18;1.20;;;;;;;13.46;100.00;98550.25;5042494;28;20538;-69
2022/09/10 05:35:39;;;;;;;3.53;1.48;;;;;;;13.33;100.00;98545.00;5043721;28;20481;-76
2022/09/10 05:38:05;;;;;;;6.55;1.73;;;;;;;13.45;100.00;98572.25;5053070;28;20079;-69
2022/09/10 05:40:30;;;;;;;2.72;1.10;;;;;;;13.40;100.00;98563.94;5046380;28;20021;-75
2022/09/10 05:42:55;;;;;;;6.97;1.45;;;;;;;13.39;100.00;98554.97;5043201;28;20032;-71
2022/09/10 05:45:22;;;;;;;1.88;1.20;;;;;;;13.51;100.00;98574.03;5029023;28;20505;-65
2022/09/10 05:47:48;;;;;;;3.83;1.38;;;;;;;13.56;100.00;98576.91;5049461;28;20052;-65
2022/09/10 05:50:16;;;;;;;6.30;1.30;;;;;;;13.57;100.00;98578.56;5046195;28;20052;-65
2022/09/10 05:52:41;;;;;;;4.00;1.33;;;;;;;13.62;100.00;98569.72;5033416;28;20016;-65
2022/09/10 05:55:07;;;;;;;3.00;1.27;;;;;;;13.63;100.00;98571.41;5045461;28;20065;-65
2022/09/10 05:57:32;;;;;;;4.07;1.42;;;;;;;13.66;100.00;98571.75;5048247;28;20056;-65
2022/09/10 05:59:58;;;;;;;6.93;1.45;;;;;;;13.62;100.00;98575.16;5042422;28;20569;-65
2022/09/10 06:02:25;;;;;;;8.50;1.48;;;;;;;13.68;100.00;98566.94;5045367;28;20028;-65
2022/09/10 06:04:50;;;;;;;5.47;1.25;;;;;;;13.76;100.00;98572.06;5040753;28;20029;-65
2022/09/10 06:07:16;;;;;;;3.35;1.35;;;;;;;13.77;100.00;98572.88;5039790;28;20036;-65
2022/09/10 06:09:41;;;;;;;6.40;2.95;;;;;;;13.86;100.00;98578.81;5041066;28;20036;-66
2022/09/10 06:12:06;;;;;;;4.07;2.85;;;;;;;13.92;100.00;98567.84;5036741;28;20032;-65
2022/09/10 06:14:32;;;;;;;8.85;3.92;;;;;;;14.05;100.00;98575.00;5048003;28;20037;-65
2022/09/10 06:16:57;;;;;;;7.03;3.13;;;;;;;13.89;100.00;98545.75;5048213;28;20076;-65
2022/09/10 06:19:22;;;;;;;4.70;2.60;;;;;;;14.14;100.00;98576.31;5047261;28;20064;-65
2022/09/10 06:21:53;;;;;;;3.63;1.80;;;;;;;14.17;100.00;98577.75;5044527;28;20021;-65
2022/09/10 06:24:19;;;;;;;11.15;1.73;;;;;;;14.16;100.00;98579.66;5039893;28;20029;-65
2022/09/10 06:26:50;;;;;;;4.32;1.40;;;;;;;14.17;100.00;98581.31;5042466;28;20051;-65
2022/09/10 06:29:17;;;;;;;2.72;1.20;;;;;;;14.24;100.00;98589.38;5035555;28;20021;-65
2022/09/10 06:31:43;;;;;;;2.40;1.02;;;;;;;14.15;100.00;98583.44;5049530;28;20474;-70
2022/09/10 06:34:08;;;;;;;2.95;1.23;;;;;;;14.27;100.00;98593.50;5047917;28;20025;-74
2022/09/10 06:36:34;;;;;;;1.73;1.05;;;;;;;14.27;100.00;98585.34;5030109;28;20025;-74
2022/09/10 06:39:00;;;;;;;4.95;1.00;;;;;;;14.38;100.00;98590.00;5034921;28;20494;-71
2022/09/10 06:41:29;;;;;;;4.07;1.08;;;;;;;14.34;100.00;98588.81;5044481;28;20028;-68
2022/09/10 06:43:55;;;;;;;2.80;1.05;;;;;;;14.28;100.00;98587.84;5044131;28;20024;-70
2022/09/10 06:46:20;;;;;;;6.00;1.20;;;;;;;14.34;100.00;98586.09;5050263;28;20032;-75
2022/09/10 06:48:46;;;;;;;4.70;1.00;;;;;;;14.49;100.00;98589.19;5049257;28;20029;-73
2022/09/10 06:51:12;;;;;;;3.33;0.95;;;;;;;14.59;100.00;98600.38;5047946;28;20021;-72
2022/09/10 06:53:39;;;;;;;3.40;0.90;;;;;;;14.69;100.00;98603.31;5047288;28;20043;-74
2022/09/10 06:56:09;;;;;;;3.78;1.00;;;;;;;14.80;100.00;98579.06;5040150;28;20410;-73
2022/09/10 06:58:34;;;;;;;2.08;0.80;;;;;;;14.75;100.00;98563.47;5049345;28;20482;-75
2022/09/10 07:01:11;;;;;;;1.38;0.75;;;;;;;15.00;100.00;98603.25;5030848;28;20043;-79
2022/09/10 07:03:36;;;;;;;3.40;1.00;;;;;;;15.06;100.00;98589.50;5042887;28;20060;-68
2022/09/10 07:06:05;;;;;;;2.63;0.80;;;;;;;15.20;100.00;98595.53;5050689;28;20494;-75
2022/09/10 07:08:31;;;;;;;2.45;0.68;;;;;;;15.33;100.00;98606.19;5045085;28;20078;-74
2022/09/10 07:11:02;;;;;;;2.78;1.08;;;;;;;15.33;100.00;98598.00;5032135;28;20029;-77
2022/09/10 07:13:27;;;;;;;2.90;0.93;;;;;;;15.52;100.00;98614.22;5024813;28;20029;-76
2022/09/10 07:15:53;;;;;;;10.52;0.88;;;;;;;15.67;100.00;98595.44;5046711;28;20047;-77
2022/09/10 07:18:18;;;;;;;2.63;0.80;;;;;;;15.45;100.00;98610.78;5039211;28;20029;-73
2022/09/10 07:20:45;;;;;;;2.42;0.95;;;;;;;15.56;100.00;98605.31;5034860;28;20451;-69
2022/09/10 07:23:15;;;;;;;1.88;0.60;;;;;;;15.86;100.00;98598.84;5045922;28;20500;-74
2022/09/10 07:25:41;;;;;;;2.05;0.60;;;;;;;16.04;100.00;98616.13;5048662;28;20173;-75
2022/09/10 07:28:12;;;;;;;3.47;0.75;;;;;;;15.96;100.00;98601.78;5050109;28;20033;-77
2022/09/10 07:30:40;;;;;;;2.92;0.60;;;;;;;15.99;100.00;98611.38;5049248;28;20596;-75
2022/09/10 07:33:05;;;;;;;3.63;0.70;;;;;;;15.98;100.00;98621.47;5036502;28;20029;-75
2022/09/10 07:35:37;;;;;;;2.80;0.70;;;;;;;16.30;100.00;98629.19;5034835;28;20045;-69
2022/09/10 07:38:04;;;;;;;4.80;0.70;;;;;;;16.67;100.00;98634.19;5045093;28;20394;-74
2022/09/10 07:40:30;;;;;;;3.95;0.68;;;;;;;17.03;100.00;98615.69;5043823;28;20025;-79
2022/09/10 07:42:55;;;;;;;1.30;0.60;;;;;;;17.09;100.00;98609.22;5031794;28;20021;-75
2022/09/10 07:45:21;;;;;;;2.90;0.60;;;;;;;17.07;100.00;98638.69;5050301;28;20433;-76
2022/09/10 07:47:48;;;;;;;0.60;0.40;;;;;;;16.89;100.00;98634.31;5047424;28;20744;-71
2022/09/10 07:50:13;;;;;;;4.25;0.85;;;;;;;16.97;100.00;98633.88;5041513;28;20025;-69
2022/09/10 07:52:42;;;;;;;3.45;0.50;;;;;;;16.88;100.00;98642.78;5047121;28;20025;-68
2022/09/10 07:55:08;;;;;;;4.00;0.47;;;;;;;16.74;100.00;98645.81;5046465;28;20422;-70
2022/09/10 07:57:36;;;;;;;2.80;0.70;;;;;;;16.69;100.00;98636.66;5044585;28;20087;-69
2022/09/10 08:00:03;;;;;;;1.58;0.63;;;;;;;16.48;100.00;98657.31;5045008;28;20415;-70
2022/09/10 08:02:29;;;;;;;2.30;0.52;;;;;;;16.33;100.00;98649.69;5046791;28;20032;-69
2022/09/10 08:04:54;;;;;;;5.80;0.57;;;;;;;16.23;100.00;98654.97;5046998;28;20024;-70
2022/09/10 08:07:19;;;;;;;2.28;0.75;;;;;;;16.15;100.00;98628.88;5046699;28;20029;-71
2022/09/10 08:09:44;;;;;;;6.35;0.50;;;;;;;16.16;100.00;98641.44;5050050;28;20390;-72
2022/09/10 08:12:10;;;;;;;2.58;0.70;;;;;;;16.32;100.00;98642.56;5045802;28;20113;-73
2022/09/10 08:14:36;;;;;;;2.35;0.80;;;;;;;16.57;100.00;98644.94;5042427;28;20041;-72
2022/09/10 08:17:02;;;;;;;2.85;0.88;;;;;;;16.68;100.00;98668.63;5046211;28;20691;-71
2022/09/10 08:19:28;;;;;;;1.38;0.50;;;;;;;16.75;100.00;98661.09;5048951;28;20032;-70
2022/09/10 08:21:55;;;;;;;4.55;0.60;;;;;;;17.17;100.00;98666.19;5047024;28;20029;-68
2022/09/10 08:24:21;;;;;;;3.13;0.68;;;;;;;17.36;100.00;98669.47;5048909;28;20021;-71
2022/09/10 08:26:46;;;;;;;3.55;0.63;;;;;;;17.64;100.00;98657.56;5044247;28;20545;-81
2022/09/10 08:29:12;;;;;;;1.08;0.43;;;;;;;17.92;100.00;98667.56;5029538;28;20036;-69
2022/09/10 08:31:38;;;;;;;0.70;0.50;;;;;;;17.83;100.00;98679.19;5047243;28;21775;-74
2022/09/10 08:34:04;;;;;;;1.63;0.40;;;;;;;17.75;100.00;98674.97;5047137;28;20497;-69
2022/09/10 08:36:29;;;;;;;4.15;0.88;;;;;;;17.89;100.00;98675.44;5048432;28;20029;-69
2022/09/10 08:38:55;;;;;;;4.68;0.70;;;;;;;18.43;100.00;98648.13;5038961;28;20623;-69
2022/09/10 08:41:45;;;;;;;2.83;0.85;;;;;;;19.57;96.54;98675.41;5042791;28;20029;-68
2022/09/10 08:44:30;;;;;;;2.13;0.57;;;;;;;19.76;87.84;98664.84;5045798;28;20047;-68
2022/09/10 08:47:04;;;;;;;2.00;0.50;;;;;;;19.58;88.04;98677.06;5044607;28;20127;-69
2022/09/10 08:49:33;;;;;;;1.33;0.30;;;;;;;19.43;90.12;98681.34;5035578;28;20030;-69
2022/09/10 08:52:23;;;;;;;1.02;0.38;;;;;;;18.97;91.86;98674.72;5039869;28;20479;-70
2022/09/10 08:55:19;;;;;;;2.03;0.45;;;;;;;19.25;92.27;98665.31;5022664;28;20032;-69
2022/09/10 08:57:49;;;;;;;3.47;0.70;;;;;;;18.85;90.41;98663.09;5047771;28;20025;-74
2022/09/10 09:00:20;;;;;;;2.92;0.52;;;;;;;18.88;92.32;98673.53;5041807;28;20017;-70
2022/09/10 09:03:04;;;;;;;2.53;0.40;;;;;;;19.01;91.90;98665.69;5043467;28;20654;-74
2022/09/10 09:05:43;;;;;;;1.23;0.30;;;;;;;18.61;91.69;98674.34;5030926;28;20021;-72
2022/09/10 09:08:12;;;;;;;6.03;0.45;;;;;;;18.35;90.06;98670.50;5026426;28;20033;-75
2022/09/10 09:10:48;;;;;;;2.38;0.40;;;;;;;18.65;92.53;98680.13;5046828;28;20040;-81
2022/09/10 09:13:25;;;;;;;5.10;0.43;;;;;;;18.65;96.12;98686.44;5049247;28;20029;-71
2022/09/10 09:15:56;;;;;;;2.13;0.60;;;;;;;18.43;94.50;98678.28;5050844;28;20071;-77
2022/09/10 09:18:56;;;;;;;3.38;0.60;;;;;;;18.18;96.65;98690.59;5051127;28;20033;-74
2022/09/10 09:21:45;;;;;;;4.78;0.60;;;;;;;18.03;100.00;98687.69;5043027;28;20082;-71
2022/09/10 09:24:28;;;;;;;;;;;;;;;18.27;94.46;98674.53;5053386;28;20024;-70
2022/09/10 09:27:01;;;;;;;3.90;0.52;;;;;;;18.50;91.20;98686.31;5047360;28;19920;-70
2022/09/10 09:29:33;;;;;;;7.82;0.65;;;;;;;18.78;89.20;98675.06;5044876;28;20029;-70
2022/09/10 09:32:04;;;;;;;1.83;0.30;;;;;;;19.08;90.60;98672.88;5047048;28;20039;-71
2022/09/10 09:34:44;;;;;;;5.55;0.63;;;;;;;19.35;86.08;98679.09;5041698;28;20032;-70
2022/09/10 09:37:17;;;;;;;2.75;0.40;;;;;;;19.66;85.82;98668.34;5045870;28;20028;-71
2022/09/10 09:40:05;;;;;;;2.83;0.68;;;;;;;20.59;73.01;98653.88;5042648;28;20029;-70
2022/09/10 09:42:55;;;;;;;10.80;1.20;;;;;;;20.76;71.79;98665.47;5046169;28;20021;-71
2022/09/10 09:45:36;;;;;;;10.60;0.77;;;;;;;20.64;69.95;98666.81;5022599;28;20048;-71
2022/09/10 09:48:05;;;;;;;3.92;0.75;;;;;;;20.67;69.67;98672.63;5036625;28;20036;-71
2022/09/10 09:50:33;;;;;;;;;;;;;;;20.31;71.00;98675.25;5053974;28;20100;-70
2022/09/10 09:52:58;;;;;;;2.40;0.60;;;;;;;19.31;72.46;98671.66;5030351;28;19974;-70
2022/09/10 09:55:33;;;;;;;3.30;0.50;;;;;;;19.57;73.80;98672.66;5033577;28;20033;-71
2022/09/10 09:58:25;;;;;;;11.18;0.93;;;;;;;18.67;77.31;98670.56;5031298;28;20026;-70
2022/09/10 10:01:04;;;;;;;19.38;0.95;;;;;;;18.49;79.38;98679.97;5037216;28;20552;-70
2022/09/10 10:03:34;;;;;;;6.20;1.10;;;;;;;18.67;79.16;98656.84;5049418;28;20037;-70
2022/09/10 10:06:05;;;;;;;3.90;0.47;;;;;;;18.01;82.54;98675.31;5031255;28;20028;-70
2022/09/10 10:08:42;;;;;;;3.83;0.57;;;;;;;18.20;85.19;98681.28;5045374;28;20129;-70
2022/09/10 10:11:11;;;;;;;3.35;0.50;;;;;;;17.66;85.73;98671.84;5050189;28;20033;-70
2022/09/10 10:13:44;;;;;;;4.32;0.95;;;;;;;18.02;87.81;98679.69;5049561;28;20028;-70
2022/09/10 10:16:21;;;;;;;2.58;0.52;;;;;;;18.46;85.49;98680.50;5048456;28;20035;-70
2022/09/10 10:18:47;;;;;;;3.72;0.40;;;;;;;18.64;81.71;98670.25;5047496;28;20021;-70
2022/09/10 10:21:28;;;;;;;3.15;0.57;;;;;;;18.99;78.59;98672.53;5037822;28;20478;-70
2022/09/10 10:23:53;;;;;;;1.95;0.57;;;;;;;19.45;76.14;98665.47;5050578;28;20032;-70
2022/09/10 10:26:19;;;;;;;2.80;0.50;;;;;;;19.53;77.33;98677.03;5052038;28;20025;-70
2022/09/10 10:28:54;;;;;;;2.25;0.55;;;;;;;19.67;76.90;98659.03;5048017;28;20052;-70
2022/09/10 10:31:20;;;;;;;2.85;0.60;;;;;;;19.80;73.40;98653.06;5047913;28;20451;-70
2022/09/10 10:34:04;;;;;;;1.80;0.28;;;;;;;20.36;72.35;98650.53;5052553;28;20108;-70
2022/09/10 10:36:52;;;;;;;2.55;0.47;;;;;;;23.33;61.98;98657.88;5049632;28;20029;-71
2022/09/10 10:39:41;;;;;;;3.33;0.47;;;;;;;25.38;52.26;98646.84;5024922;28;20732;-68
2022/09/10 10:42:06;;;;;;;2.97;0.82;;;;;;;24.89;52.04;98645.47;5046214;28;20033;-67
2022/09/10 10:45:02;;;;;;;1.52;0.40;;;;;;;23.38;56.50;98646.78;5049167;28;20395;-68
2022/09/10 10:47:45;;;;;;;2.80;0.38;;;;;;;25.26;51.79;98632.69;5049866;28;20091;-68
2022/09/10 10:50:14;;;;;;;2.13;0.40;;;;;;;23.27;55.20;98636.97;5046760;28;20393;-67
2022/09/10 10:52:45;;;;;;;5.03;0.70;;;;;;;23.58;54.58;98637.47;5044499;28;20023;-67
2022/09/10 10:55:36;;;;;;;2.63;0.77;;;;;;;22.96;56.09;98639.97;5049253;28;20521;-68
2022/09/10 10:58:26;;;;;;;2.38;0.40;;;;;;;22.96;56.05;98639.97;5047782;28;20028;-68
2022/09/10 11:03:26;;;;;;;4.25;0.43;;;;;;;22.34;58.46;98627.69;5037900;28;20052;-72
2022/09/10 11:06:20;;;;;;;4.65;0.70;;;;;;;22.60;60.11;98646.84;5022368;28;20025;-73
2022/09/10 11:08:54;;;;;;;8.15;0.57;;;;;;;22.09;60.38;98646.00;5039741;28;20091;-73
2022/09/10 11:11:26;;;;;;;1.90;0.55;;;;;;;22.21;59.14;98634.66;5037883;28;20393;-71
2022/09/10 11:14:00;;;;;;;4.63;0.45;;;;;;;21.80;60.80;98634.81;5043595;28;20021;-72
2022/09/10 11:16:33;;;;;;;2.78;0.52;;;;;;;21.01;63.28;98642.66;5042153;28;20045;-71
2022/09/10 11:19:20;;;;;;;3.15;0.40;;;;;;;20.14;66.18;98628.75;5048915;28;20040;-71
2022/09/10 11:21:57;;;;;;;3.22;0.40;;;;;;;20.66;64.71;98620.66;5046882;28;20021;-72
2022/09/10 11:24:28;;;;;;;3.78;0.50;;;;;;;21.13;62.73;98623.09;5042363;28;20482;-72
2022/09/10 11:27:12;;;;;;;2.50;0.57;;;;;;;21.36;61.56;98631.91;5043261;28;20090;-72
2022/09/10 11:30:03;;;;;;;2.72;0.55;;;;;;;21.20;61.41;98625.59;5044176;28;20108;-72
2022/09/10 11:32:35;;;;;;;2.38;0.43;;;;;;;21.41;61.35;98632.72;5041192;28;20021;-71
2022/09/10 11:35:28;;;;;;;1.80;0.30;;;;;;;22.24;58.21;98628.59;5045529;28;20048;-72
2022/09/10 11:38:15;;;;;;;3.25;0.70;;;;;;;24.02;52.45;98619.00;5051230;28;20032;-72
2022/09/10 11:40:51;;;;;;;3.10;0.50;;;;;;;22.87;53.09;98619.63;5045632;28;20585;-72
2022/09/10 11:44:05;;;;;;;5.30;0.60;;;;;;;21.57;56.83;98591.41;5046744;28;20025;-72